Terminal Aerodrome Forecast
Issued by NWS

Home | Current Version | Previous Version | Text Only | Print | Product List | Glossary On
Versions: 1 2 3 4 5 6 7 8 9 10 11 12 13 14 15
000
FTUS43 KGRB 251141
TAFMTW
TAF
KMTW 251141Z 2512/2612 27006KT P6SM SKC
     FM251400 32007KT P6SM BKN030
     FM251600 34007KT P6SM SCT035
     FM251900 04006KT P6SM SKC
     FM252200 09005KT P6SM SKC
      TEMPO 2609/2612 1SM BR=

USA.gov is the U.S. government's official web portal to all federal, state and local government web resources and services.